Time;durP1;ratioP1;P1;durP2;ratioP2;P2;SDS_P1;SDS_P2;PMS_P1;PMS_P2;Temp;Humidity;BMP_temperature;BMP_pressure;BME280_temperature;BME280_humidity;BME280_pressure;Samples;Min_cycle;Max_cycle;Signal;HPM_P1;HPM_P2
2022/09/01 00:01:29;;;;;;;2.08;1.10;;;20.10;79.10;;;;;;5032361;28;20060;-74
2022/09/01 00:04:01;;;;;;;2.95;1.30;;;20.10;79.10;;;;;;5050217;28;20025;-74
2022/09/01 00:06:28;;;;;;;3.03;1.33;;;20.10;79.20;;;;;;5050245;28;20032;-74
2022/09/01 00:08:56;;;;;;;3.03;1.27;;;20.10;79.30;;;;;;5050462;28;20025;-74
2022/09/01 00:11:24;;;;;;;4.55;1.20;;;20.10;79.30;;;;;;5050477;28;20029;-74
2022/09/01 00:13:51;;;;;;;3.22;1.30;;;20.10;79.30;;;;;;5051773;28;20025;-74
2022/09/01 00:16:18;;;;;;;3.53;1.20;;;20.00;79.40;;;;;;5053880;28;20036;-74
2022/09/01 00:18:50;;;;;;;6.00;1.45;;;20.00;79.50;;;;;;5054051;28;20029;-74
2022/09/01 00:21:21;;;;;;;3.85;1.48;;;20.00;79.60;;;;;;5053900;28;20111;-73
2022/09/01 00:23:47;;;;;;;3.85;1.40;;;20.00;79.70;;;;;;5053961;28;20113;-74
2022/09/01 00:26:13;;;;;;;2.65;1.20;;;19.90;79.70;;;;;;5035963;28;20037;-74
2022/09/01 00:28:39;;;;;;;4.03;1.20;;;19.90;79.80;;;;;;5053517;28;20035;-74
2022/09/01 00:31:07;;;;;;;3.60;1.42;;;19.90;79.80;;;;;;5053513;28;20055;-74
2022/09/01 00:33:34;;;;;;;2.95;1.30;;;19.90;79.90;;;;;;5053776;28;20112;-75
2022/09/01 00:36:01;;;;;;;2.35;1.10;;;19.90;80.00;;;;;;5035660;28;20025;-74
2022/09/01 00:38:27;;;;;;;5.50;1.30;;;19.90;80.10;;;;;;5053660;28;20028;-73
2022/09/01 00:40:53;;;;;;;3.83;1.50;;;19.80;80.10;;;;;;5019032;28;20029;-74
2022/09/01 00:43:50;;;;;;;4.47;1.27;;;19.80;80.20;;;;;;5053807;28;20146;-74
2022/09/01 00:46:23;;;;;;;8.38;1.40;;;19.80;80.30;;;;;;5035333;28;20064;-74
2022/09/01 00:49:16;;;;;;;3.72;1.20;;;19.80;80.30;;;;;;5035365;28;20389;-74
2022/09/01 00:51:47;;;;;;;2.95;1.27;;;19.80;80.40;;;;;;5014961;28;20037;-74
2022/09/01 00:54:18;;;;;;;5.13;1.60;;;19.70;80.40;;;;;;5035298;28;20025;-74
2022/09/01 00:56:46;;;;;;;3.65;1.30;;;19.70;80.50;;;;;;5035209;28;20032;-74
2022/09/01 00:59:13;;;;;;;4.32;1.58;;;19.70;80.40;;;;;;5053024;28;20044;-74
2022/09/01 01:01:39;;;;;;;3.42;1.55;;;19.70;80.40;;;;;;5053231;28;20052;-74
2022/09/01 01:04:13;;;;;;;2.78;1.10;;;19.70;80.50;;;;;;5053125;28;20434;-74
2022/09/01 01:07:02;;;;;;;3.53;1.27;;;19.70;80.50;;;;;;5035228;28;20039;-74
2022/09/01 01:09:33;;;;;;;4.07;1.40;;;19.70;80.40;;;;;;5035114;28;20043;-73
2022/09/01 01:12:02;;;;;;;3.25;1.20;;;19.70;80.40;;;;;;5052970;28;20029;-74
2022/09/01 01:14:30;;;;;;;3.08;1.58;;;19.70;80.40;;;;;;5053075;28;20057;-74
2022/09/01 01:16:58;;;;;;;7.03;1.30;;;19.70;80.40;;;;;;5034972;28;20025;-74
2022/09/01 01:25:20;;;;;;;2.95;1.10;;;19.70;80.60;;;;;;5034171;28;20116;-74
2022/09/01 01:27:47;;;;;;;2.95;1.42;;;19.70;80.50;;;;;;5034734;28;20443;-74
2022/09/01 01:30:16;;;;;;;2.65;1.15;;;19.70;80.60;;;;;;5034431;28;20401;-74
2022/09/01 01:32:46;;;;;;;1.98;1.10;;;19.60;80.70;;;;;;5034668;28;20444;-74
2022/09/01 01:35:15;;;;;;;3.13;1.25;;;19.60;80.80;;;;;;5034577;28;20061;-73
2022/09/01 01:37:47;;;;;;;3.70;1.35;;;19.60;80.90;;;;;;5034552;28;20556;-74
2022/09/01 01:40:18;;;;;;;2.17;1.20;;;19.60;80.90;;;;;;5034251;28;20040;-74
2022/09/01 01:42:47;;;;;;;2.38;1.20;;;19.60;81.10;;;;;;5018130;28;20029;-74
2022/09/01 01:45:18;;;;;;;1.73;1.20;;;19.60;81.10;;;;;;5050796;23;20037;-80
2022/09/01 01:47:50;;;;;;;4.45;1.42;;;19.50;81.20;;;;;;5030395;28;20037;-80
2022/09/01 01:50:17;;;;;;;1.48;1.10;;;19.50;81.20;;;;;;5030367;28;20026;-80
2022/09/01 01:52:44;;;;;;;3.88;1.17;;;19.50;81.30;;;;;;5030860;28;20026;-80
2022/09/01 01:55:11;;;;;;;2.35;1.13;;;19.50;81.40;;;;;;5032016;28;20056;-80
2022/09/01 01:57:48;;;;;;;3.08;1.27;;;19.50;81.40;;;;;;5029980;28;20034;-80
2022/09/01 02:00:20;;;;;;;3.58;1.05;;;19.50;81.50;;;;;;5030279;28;20048;-80
2022/09/01 02:02:51;;;;;;;6.63;1.27;;;19.50;81.60;;;;;;5030817;28;20025;-80
2022/09/01 02:05:23;;;;;;;4.05;1.17;;;19.40;81.70;;;;;;5030513;28;20086;-80
2022/09/01 02:08:03;;;;;;;3.45;1.40;;;19.40;81.90;;;;;;5030302;28;20037;-80
2022/09/01 02:10:32;;;;;;;3.38;1.60;;;19.40;82.00;;;;;;5030355;28;20064;-80
2022/09/01 02:13:03;;;;;;;4.22;1.77;;;19.40;82.00;;;;;;5030389;28;20490;-80
2022/09/01 02:15:33;;;;;;;3.55;1.63;;;19.40;82.00;;;;;;5030418;28;20067;-80
2022/09/01 02:17:59;;;;;;;5.32;1.40;;;19.40;82.00;;;;;;5031430;28;20078;-80
2022/09/01 02:20:28;;;;;;;3.92;1.40;;;19.40;82.10;;;;;;5030263;28;20025;-80
2022/09/01 02:22:55;;;;;;;3.15;1.30;;;19.30;82.10;;;;;;5030211;28;20037;-80
2022/09/01 02:25:22;;;;;;;5.32;1.63;;;19.30;82.20;;;;;;5030165;28;20040;-80
2022/09/01 02:27:54;;;;;;;4.68;1.55;;;19.30;82.30;;;;;;5029942;28;20052;-80
2022/09/01 02:30:23;;;;;;;4.82;1.50;;;19.30;82.40;;;;;;5029872;28;20033;-80
2022/09/01 02:32:49;;;;;;;3.72;1.58;;;19.20;82.40;;;;;;5030119;28;20022;-80
2022/09/01 02:35:15;;;;;;;6.05;1.20;;;19.20;82.40;;;;;;5029957;28;20136;-80
2022/09/01 02:37:42;;;;;;;3.33;1.50;;;19.20;82.70;;;;;;5029854;28;20104;-80
2022/09/01 02:40:09;;;;;;;3.75;1.42;;;19.10;82.70;;;;;;5029759;28;20148;-80
2022/09/01 02:42:39;;;;;;;4.15;1.63;;;19.10;82.60;;;;;;5029904;28;20037;-80
2022/09/01 02:45:10;;;;;;;3.80;1.30;;;19.20;82.70;;;;;;5029735;28;20505;-80
2022/09/01 02:47:40;;;;;;;4.95;1.40;;;19.10;82.60;;;;;;5029607;28;20120;-80
2022/09/01 02:50:12;;;;;;;3.47;1.38;;;19.10;82.80;;;;;;5029542;28;20021;-80
2022/09/01 02:52:39;;;;;;;3.30;1.23;;;19.10;82.80;;;;;;5029826;28;20029;-80
2022/09/01 02:55:08;;;;;;;4.03;1.35;;;19.10;82.90;;;;;;5029450;28;20418;-80
2022/09/01 02:57:34;;;;;;;5.63;1.40;;;19.00;83.00;;;;;;5029497;28;20029;-80
2022/09/01 03:00:00;;;;;;;3.03;1.20;;;19.00;83.20;;;;;;5030958;28;20053;-80
2022/09/01 03:02:30;;;;;;;2.55;1.35;;;19.00;83.30;;;;;;5013727;28;20080;-80
2022/09/01 03:04:56;;;;;;;4.07;1.42;;;19.00;83.30;;;;;;5030886;28;20025;-80
2022/09/01 03:07:22;;;;;;;4.95;1.40;;;19.00;83.20;;;;;;5029164;28;20120;-80
2022/09/01 03:09:49;;;;;;;4.47;1.45;;;19.00;83.70;;;;;;5029293;28;20075;-80
2022/09/01 03:12:15;;;;;;;4.55;1.50;;;18.90;83.10;;;;;;5029417;28;20036;-80
2022/09/01 03:14:40;;;;;;;7.13;1.70;;;18.90;83.40;;;;;;5029516;28;20029;-80
2022/09/01 03:17:06;;;;;;;2.92;1.20;;;18.90;83.10;;;;;;5029286;28;20029;-79
2022/09/01 03:19:39;;;;;;;3.53;1.55;;;18.80;83.10;;;;;;5029234;28;20040;-80
2022/09/01 03:22:04;;;;;;;7.05;1.60;;;18.80;83.40;;;;;;5029343;28;20091;-80
2022/09/01 03:24:31;;;;;;;3.42;1.58;;;18.70;83.60;;;;;;5029406;28;20495;-80
2022/09/01 03:26:57;;;;;;;3.63;1.40;;;18.70;83.70;;;;;;5029262;28;20053;-80
2022/09/01 03:29:23;;;;;;;5.18;1.50;;;18.70;83.80;;;;;;5028914;28;20532;-80
2022/09/01 03:31:52;;;;;;;3.25;1.40;;;18.70;83.90;;;;;;5031205;28;20076;-87
2022/09/01 03:34:22;;;;;;;4.15;1.30;;;18.70;83.90;;;;;;5029507;28;20121;-82
2022/09/01 03:36:50;;;;;;;5.80;1.60;;;18.70;83.90;;;;;;5029342;28;20297;-81
2022/09/01 03:39:21;;;;;;;3.80;1.27;;;18.70;84.20;;;;;;5023519;28;20038;-81
2022/09/01 03:41:47;;;;;;;5.53;1.50;;;18.70;84.20;;;;;;5025486;28;20025;-80
2022/09/01 03:44:15;;;;;;;5.22;1.50;;;18.70;84.20;;;;;;5029729;28;20049;-80
2022/09/01 03:46:42;;;;;;;4.13;1.73;;;18.60;84.20;;;;;;5011765;28;20499;-82
2022/09/01 03:49:14;;;;;;;4.97;1.80;;;18.60;84.30;;;;;;5013777;28;20435;-81
2022/09/01 03:51:43;;;;;;;5.05;1.48;;;18.70;84.30;;;;;;5032642;28;20036;-81
2022/09/01 03:54:09;;;;;;;3.88;1.63;;;18.70;84.10;;;;;;5032279;28;20347;-80
2022/09/01 03:56:35;;;;;;;3.95;1.52;;;18.60;84.20;;;;;;5030431;28;20033;-81
2022/09/01 03:59:01;;;;;;;4.45;1.83;;;18.60;84.40;;;;;;5031955;28;20056;-80
2022/09/01 04:01:31;;;;;;;8.18;2.20;;;18.60;84.40;;;;;;5031548;28;20030;-80
2022/09/01 04:03:57;;;;;;;6.75;1.90;;;18.60;84.20;;;;;;5031791;28;20506;-80
2022/09/01 04:06:26;;;;;;;3.53;1.58;;;18.60;84.20;;;;;;5031433;28;20128;-80
2022/09/01 04:09:01;;;;;;;3.75;1.20;;;18.60;84.20;;;;;;5031966;28;20121;-81
2022/09/01 04:11:30;;;;;;;5.22;1.48;;;18.60;84.40;;;;;;5030813;28;20026;-81
2022/09/01 04:13:57;;;;;;;4.05;1.80;;;18.50;84.40;;;;;;5031918;28;20032;-80
2022/09/01 04:19:23;;;;;;;5.10;1.70;;;18.40;84.90;;;;;;5031346;28;20065;-81
2022/09/01 04:22:01;;;;;;;4.03;1.63;;;18.40;85.10;;;;;;5031807;28;20036;-81
2022/09/01 04:24:32;;;;;;;5.78;1.77;;;18.40;85.10;;;;;;5030550;28;20323;-81
2022/09/01 04:27:01;;;;;;;5.43;1.58;;;18.30;85.10;;;;;;5031474;28;20123;-81
2022/09/01 04:29:28;;;;;;;3.97;1.40;;;18.30;85.40;;;;;;5014544;28;20025;-81
2022/09/01 04:32:05;;;;;;;6.50;1.80;;;18.30;85.60;;;;;;5014872;28;20398;-80
2022/09/01 04:34:38;;;;;;;4.13;1.90;;;18.30;85.60;;;;;;5011353;28;20125;-80
2022/09/01 04:37:13;;;;;;;3.78;1.50;;;18.30;85.80;;;;;;5012606;28;20026;-86
2022/09/01 04:39:47;;;;;;;4.07;1.60;;;18.30;85.60;;;;;;5010486;28;20034;-77
2022/09/01 04:42:13;;;;;;;4.43;1.70;;;18.20;85.80;;;;;;5011760;28;20107;-78
2022/09/01 04:44:39;;;;;;;6.30;2.08;;;18.20;85.90;;;;;;5010781;28;20061;-86
2022/09/01 04:47:09;;;;;;;6.70;1.92;;;18.20;85.70;;;;;;4995297;28;20113;-81
2022/09/01 04:49:36;;;;;;;5.47;1.70;;;18.20;86.00;;;;;;5012181;28;20115;-81
2022/09/01 04:52:03;;;;;;;5.13;2.20;;;18.10;86.00;;;;;;5011714;28;20038;-81
2022/09/01 04:54:31;;;;;;;5.25;2.03;;;18.10;86.10;;;;;;5009979;28;20022;-80
2022/09/01 04:56:57;;;;;;;5.95;1.90;;;18.10;86.10;;;;;;4994820;28;20026;-79
2022/09/01 04:59:26;;;;;;;5.57;1.90;;;18.10;86.40;;;;;;5009969;28;20034;-81
2022/09/01 05:02:12;;;;;;;4.82;1.70;;;18.00;86.50;;;;;;5010389;28;20080;-89
2022/09/01 05:04:45;;;;;;;6.25;1.77;;;18.10;86.60;;;;;;4994897;28;20553;-81
2022/09/01 05:07:13;;;;;;;5.03;2.00;;;18.10;86.60;;;;;;5010778;28;20232;-81
2022/09/01 05:09:39;;;;;;;4.70;1.83;;;18.00;86.50;;;;;;5008886;28;20049;-81
2022/09/01 05:12:23;;;;;;;8.18;2.30;;;18.00;86.60;;;;;;5011263;28;20382;-81
2022/09/01 05:14:51;;;;;;;5.28;1.90;;;18.00;86.60;;;;;;5010354;28;20033;-82
2022/09/01 05:17:18;;;;;;;6.55;2.15;;;18.00;86.80;;;;;;5009939;28;20398;-82
2022/09/01 05:19:46;;;;;;;6.88;2.35;;;18.00;86.80;;;;;;5009648;28;20037;-82
2022/09/01 05:22:15;;;;;;;4.28;1.77;;;18.00;86.90;;;;;;5010105;28;20501;-82
2022/09/01 05:24:45;;;;;;;6.72;2.00;;;18.00;87.00;;;;;;5008689;28;20030;-82
2022/09/01 05:27:13;;;;;;;4.68;1.80;;;18.00;86.90;;;;;;5009747;28;20030;-83
2022/09/01 05:29:40;;;;;;;6.45;2.10;;;18.00;87.00;;;;;;5009405;28;20088;-82
2022/09/01 05:32:10;;;;;;;3.90;1.90;;;18.00;87.00;;;;;;5010456;28;20112;-82
2022/09/01 05:34:38;;;;;;;3.38;1.52;;;18.00;87.00;;;;;;4993731;28;20057;-82
2022/09/01 05:37:07;;;;;;;5.43;1.90;;;18.10;87.00;;;;;;5010187;28;20040;-82
2022/09/01 05:39:36;;;;;;;3.55;1.60;;;18.10;87.10;;;;;;4992452;28;20284;-82
2022/09/01 05:42:04;;;;;;;6.95;1.80;;;18.10;86.90;;;;;;5010390;28;20405;-82
2022/09/01 05:44:31;;;;;;;5.93;2.10;;;18.10;87.00;;;;;;5009668;28;20046;-82
2022/09/01 05:47:01;;;;;;;4.90;1.75;;;18.10;87.10;;;;;;5010102;28;20288;-82
2022/09/01 05:49:31;;;;;;;3.40;1.60;;;18.10;87.10;;;;;;5010828;28;20109;-82
2022/09/01 05:52:00;;;;;;;5.60;1.35;;;18.10;87.00;;;;;;5010138;28;20057;-82
2022/09/01 05:54:28;;;;;;;8.27;2.05;;;18.10;86.90;;;;;;4992442;28;20087;-82
2022/09/01 05:56:59;;;;;;;4.50;1.50;;;18.10;87.00;;;;;;4993642;28;20528;-82
2022/09/01 05:59:26;;;;;;;5.05;1.60;;;18.10;86.90;;;;;;5009404;28;20120;-82
2022/09/01 06:02:12;;;;;;;6.32;1.80;;;18.20;86.90;;;;;;5009838;28;20045;-82
2022/09/01 06:04:42;;;;;;;8.13;2.00;;;18.10;86.70;;;;;;5009307;28;20037;-83
2022/09/01 06:07:16;;;;;;;8.75;2.15;;;18.20;86.90;;;;;;4993963;28;20117;-83
2022/09/01 06:09:53;;;;;;;6.20;2.20;;;18.20;86.80;;;;;;4991448;28;20049;-82
2022/09/01 06:12:40;;;;;;;6.15;1.85;;;18.20;86.80;;;;;;5018946;23;20061;-72
2022/09/01 06:15:14;;;;;;;4.63;1.60;;;18.20;86.80;;;;;;5012750;28;20029;-72
2022/09/01 06:17:42;;;;;;;5.13;1.80;;;18.30;86.80;;;;;;5012800;28;20120;-72
2022/09/01 06:20:09;;;;;;;5.40;2.10;;;18.30;87.30;;;;;;5012213;28;20034;-71
2022/09/01 06:22:36;;;;;;;5.55;2.17;;;18.30;87.10;;;;;;5012779;28;20052;-71
2022/09/01 06:25:05;;;;;;;5.78;1.95;;;18.40;86.90;;;;;;5012137;28;20033;-71
2022/09/01 06:27:43;;;;;;;5.13;2.00;;;18.40;86.90;;;;;;5011757;28;20468;-71
2022/09/01 06:30:16;;;;;;;4.85;2.10;;;18.50;86.90;;;;;;5012320;28;20029;-70
2022/09/01 06:32:53;;;;;;;6.35;2.10;;;18.50;86.70;;;;;;5012690;28;20383;-71
2022/09/01 06:35:20;;;;;;;6.35;2.03;;;18.60;86.50;;;;;;5030124;28;20086;-71
2022/09/01 06:37:47;;;;;;;6.33;1.80;;;18.60;86.40;;;;;;5012292;28;20448;-72
2022/09/01 06:40:31;;;;;;;7.78;2.13;;;18.70;86.30;;;;;;5011569;28;20291;-72
2022/09/01 06:42:59;;;;;;;6.10;1.95;;;18.70;86.40;;;;;;5012083;28;20036;-71
2022/09/01 06:45:25;;;;;;;7.28;2.00;;;18.70;86.20;;;;;;4995807;28;20030;-70
2022/09/01 06:47:52;;;;;;;9.48;2.22;;;18.70;86.10;;;;;;5011926;28;20198;-71
2022/09/01 06:50:20;;;;;;;4.95;2.03;;;18.70;86.30;;;;;;5007343;28;20030;-70
2022/09/01 06:53:02;;;;;;;18.07;3.07;;;18.80;86.30;;;;;;4992087;28;20053;-70
2022/09/01 06:55:30;;;;;;;5.18;2.33;;;18.80;86.20;;;;;;4991778;28;20275;-73
2022/09/01 06:57:57;;;;;;;6.68;1.98;;;18.80;86.00;;;;;;4992220;28;20101;-74
2022/09/01 07:00:25;;;;;;;7.22;2.40;;;18.90;85.70;;;;;;4991733;28;20049;-70
2022/09/01 07:02:53;;;;;;;7.90;2.20;;;18.90;85.50;;;;;;4991977;28;20033;-72
2022/09/01 07:05:50;;;;;;;7.53;1.98;;;18.90;85.40;;;;;;4991939;28;20036;-72
2022/09/01 07:08:20;;;;;;;7.72;2.15;;;18.90;85.50;;;;;;4992049;28;20375;-71
2022/09/01 07:11:26;;;;;;;7.82;2.40;;;18.90;85.80;;;;;;5003933;28;20038;-71
2022/09/01 07:14:00;;;;;;;9.93;2.50;;;19.00;86.30;;;;;;5009392;28;20033;-71
2022/09/01 07:16:28;;;;;;;9.18;2.25;;;19.00;86.10;;;;;;4991657;28;20552;-71
2022/09/01 07:18:59;;;;;;;7.77;2.50;;;19.00;85.80;;;;;;4991764;28;20037;-71
2022/09/01 07:21:28;;;;;;;4.65;2.00;;;19.10;85.50;;;;;;4991516;28;20034;-70
2022/09/01 07:23:57;;;;;;;11.75;2.40;;;19.10;85.40;;;;;;4991457;28;20033;-75
2022/09/01 07:26:23;;;;;;;6.78;1.70;;;19.20;86.70;;;;;;4991610;28;20719;-71
2022/09/01 07:28:49;;;;;;;6.22;2.08;;;19.20;86.70;;;;;;4992108;28;20026;-71
2022/09/01 07:31:28;;;;;;;5.75;1.98;;;19.30;86.20;;;;;;5009456;28;20378;-70
2022/09/01 07:33:58;;;;;;;5.82;2.70;;;19.30;86.70;;;;;;4993688;28;20100;-71
2022/09/01 07:36:26;;;;;;;5.57;2.05;;;19.30;86.00;;;;;;5009697;28;20075;-71
2022/09/01 07:38:52;;;;;;;5.15;1.60;;;19.40;85.80;;;;;;5010796;28;20033;-71
2022/09/01 07:41:23;;;;;;;6.15;1.98;;;19.40;85.70;;;;;;5018077;28;20053;-71
2022/09/01 07:44:14;;;;;;;7.10;1.73;;;19.40;85.70;;;;;;5022736;28;20048;-72
2022/09/01 07:47:14;;;;;;;4.10;1.55;;;19.40;86.30;;;;;;4972246;28;20040;-73
2022/09/01 07:49:41;;;;;;;3.80;1.80;;;19.50;86.80;;;;;;5010146;28;20110;-73
2022/09/01 07:52:07;;;;;;;7.93;1.63;;;19.50;86.60;;;;;;5010982;28;20490;-73
2022/09/01 07:54:36;;;;;;;5.90;1.58;;;19.50;86.40;;;;;;4993454;28;20022;-72
2022/09/01 07:57:03;;;;;;;5.03;1.85;;;19.50;85.60;;;;;;5010489;28;20489;-72
2022/09/01 07:59:34;;;;;;;5.95;2.30;;;19.50;86.00;;;;;;5007145;28;20474;-73
2022/09/01 08:02:10;;;;;;;5.65;1.98;;;19.50;85.80;;;;;;5010368;28;20037;-72
2022/09/01 08:04:38;;;;;;;5.07;1.73;;;19.50;86.50;;;;;;5010027;28;20029;-73
2022/09/01 08:07:05;;;;;;;7.40;2.10;;;19.50;85.80;;;;;;5010377;28;20120;-72
2022/09/01 08:09:31;;;;;;;3.90;1.70;;;19.60;85.70;;;;;;5006490;28;20594;-73
2022/09/01 08:11:57;;;;;;;3.92;1.98;;;19.60;84.80;;;;;;5024736;28;20053;-73
2022/09/01 08:14:23;;;;;;;6.07;1.90;;;19.60;85.00;;;;;;5024099;23;20046;-69
2022/09/01 08:16:50;;;;;;;3.80;1.60;;;19.60;85.40;;;;;;5004480;28;20030;-67
2022/09/01 08:19:17;;;;;;;4.05;1.60;;;19.70;85.50;;;;;;5019352;28;20033;-67
2022/09/01 08:22:03;;;;;;;6.20;1.60;;;19.60;84.90;;;;;;5007797;28;20049;-68
2022/09/01 08:24:42;;;;;;;3.47;1.75;;;19.60;85.20;;;;;;4997401;28;20042;-68
2022/09/01 08:27:08;;;;;;;4.00;1.80;;;19.70;83.40;;;;;;4996676;28;20039;-68
2022/09/01 08:29:34;;;;;;;4.63;1.67;;;19.70;84.90;;;;;;4987239;28;20041;-68
2022/09/01 08:32:01;;;;;;;4.13;1.63;;;19.70;84.80;;;;;;4989242;28;20038;-69
2022/09/01 08:34:27;;;;;;;5.32;1.60;;;19.70;85.30;;;;;;4991469;28;20086;-68
2022/09/01 08:36:53;;;;;;;3.55;1.70;;;19.70;83.50;;;;;;4992275;28;20566;-69
2022/09/01 08:39:19;;;;;;;3.67;1.40;;;19.80;83.00;;;;;;4992485;28;20034;-69
2022/09/01 08:42:00;;;;;;;3.78;1.60;;;19.80;83.80;;;;;;4992525;28;20034;-69
2022/09/01 08:44:51;;;;;;;3.85;1.42;;;19.90;82.30;;;;;;4995089;28;20030;-69
2022/09/01 08:47:19;;;;;;;3.65;1.40;;;19.90;84.00;;;;;;4989951;28;20112;-69
2022/09/01 08:49:48;;;;;;;3.88;1.40;;;19.90;82.90;;;;;;4992946;28;20529;-70
2022/09/01 08:52:40;;;;;;;3.92;1.20;;;19.90;81.70;;;;;;4990484;28;20061;-69
2022/09/01 08:55:26;;;;;;;3.25;1.30;;;20.00;81.90;;;;;;5000819;28;20623;-69
2022/09/01 08:57:56;;;;;;;3.47;1.40;;;20.00;83.20;;;;;;5010003;28;20459;-68
2022/09/01 09:00:29;;;;;;;3.20;1.23;;;20.00;81.00;;;;;;4999172;28;20046;-68
2022/09/01 09:03:15;;;;;;;4.20;1.30;;;20.00;84.40;;;;;;5000668;28;20038;-68
2022/09/01 09:05:56;;;;;;;4.40;1.40;;;20.10;81.70;;;;;;4984026;28;20034;-69
2022/09/01 09:08:37;;;;;;;2.35;1.30;;;20.10;83.40;;;;;;4994259;28;20136;-68
2022/09/01 09:11:31;;;;;;;3.38;1.08;;;20.10;82.90;;;;;;5002306;28;20030;-68
2022/09/01 09:14:15;;;;;;;2.72;1.10;;;20.10;80.20;;;;;;4990730;28;20031;-68
2022/09/01 09:16:48;;;;;;;2.70;1.13;;;20.20;80.80;;;;;;4991199;28;20542;-68
2022/09/01 09:19:30;;;;;;;2.20;1.10;;;20.20;83.40;;;;;;5007733;28;20048;-68
2022/09/01 09:21:59;;;;;;;3.22;1.00;;;20.20;82.10;;;;;;5009629;28;20137;-68
2022/09/01 09:24:49;;;;;;;4.30;1.30;;;20.20;83.60;;;;;;5009193;28;20108;-70
2022/09/01 09:27:39;;;;;;;4.28;1.20;;;20.20;79.60;;;;;;4990147;28;20043;-69
2022/09/01 09:30:07;;;;;;;1.67;1.00;;;20.30;78.40;;;;;;5004081;28;20026;-69
2022/09/01 09:32:59;;;;;;;2.33;0.90;;;20.30;78.60;;;;;;4999278;28;20022;-69
2022/09/01 09:35:30;;;;;;;2.38;1.10;;;20.30;80.50;;;;;;5009449;28;20030;-69
2022/09/01 09:38:21;;;;;;;3.90;1.20;;;20.40;76.80;;;;;;4991622;28;20048;-68
2022/09/01 09:41:03;;;;;;;3.20;1.10;;;20.40;76.50;;;;;;4990692;28;20491;-69
2022/09/01 09:43:34;;;;;;;3.13;1.10;;;20.40;76.70;;;;;;5011029;28;20034;-67
2022/09/01 09:46:20;;;;;;;2.10;1.00;;;20.50;76.40;;;;;;5010082;28;20029;-67
2022/09/01 09:48:47;;;;;;;4.85;2.08;;;20.50;76.40;;;;;;5010746;28;20113;-67
2022/09/01 09:51:20;;;;;;;6.30;1.63;;;20.50;76.80;;;;;;5010535;28;20069;-67
2022/09/01 09:53:46;;;;;;;3.58;1.10;;;20.60;76.30;;;;;;5010808;28;20594;-67
2022/09/01 09:56:19;;;;;;;1.98;1.00;;;20.50;76.70;;;;;;5009913;28;20062;-67
2022/09/01 09:58:47;;;;;;;1.73;0.93;;;20.60;76.00;;;;;;5010697;28;20025;-67
2022/09/01 10:01:33;;;;;;;2.92;1.10;;;20.60;75.40;;;;;;5010371;28;20033;-67
2022/09/01 10:04:02;;;;;;;2.22;0.90;;;20.60;75.30;;;;;;5009224;28;20554;-68
2022/09/01 10:06:33;;;;;;;3.13;1.15;;;20.60;75.60;;;;;;5010050;28;20107;-70
2022/09/01 10:09:04;;;;;;;1.95;1.00;;;20.60;75.00;;;;;;5010106;28;20192;-68
2022/09/01 10:11:37;;;;;;;3.28;0.90;;;20.70;75.20;;;;;;5009853;28;20509;-67
2022/09/01 10:14:13;;;;;;;3.03;1.27;;;20.70;74.90;;;;;;5010295;28;20585;-67
2022/09/01 10:16:41;;;;;;;4.28;1.35;;;20.70;75.00;;;;;;5009855;28;20061;-66
2022/09/01 10:19:11;;;;;;;3.42;1.10;;;20.70;76.00;;;;;;5010107;28;20068;-64
2022/09/01 10:21:40;;;;;;;1.67;0.90;;;20.70;74.80;;;;;;5010118;28;20026;-67
2022/09/01 10:24:12;;;;;;;3.72;1.20;;;20.80;73.20;;;;;;4998909;28;20022;-66
2022/09/01 10:26:42;;;;;;;3.17;1.30;;;20.80;73.30;;;;;;4984779;28;20559;-67
2022/09/01 10:29:25;;;;;;;2.95;1.20;;;20.80;74.10;;;;;;4990413;28;20037;-67
2022/09/01 10:31:54;;;;;;;2.50;1.10;;;20.80;73.80;;;;;;4991139;28;20038;-67
2022/09/01 10:34:21;;;;;;;2.28;1.00;;;20.90;74.60;;;;;;4990859;28;20403;-68
2022/09/01 10:36:48;;;;;;;2.40;1.00;;;20.90;73.60;;;;;;4990526;28;20038;-66
2022/09/01 10:39:17;;;;;;;3.50;1.10;;;21.00;73.00;;;;;;4989019;28;20033;-66
2022/09/01 10:42:05;;;;;;;1.33;0.82;;;21.00;73.30;;;;;;4989047;28;20034;-66
2022/09/01 10:44:33;;;;;;;1.85;1.02;;;21.00;73.30;;;;;;4990692;28;20034;-65
2022/09/01 10:47:08;;;;;;;2.58;1.30;;;21.00;73.10;;;;;;4990427;28;20506;-67
2022/09/01 10:49:34;;;;;;;3.03;1.30;;;21.00;74.30;;;;;;4990412;28;20460;-74
2022/09/01 10:52:00;;;;;;;4.25;1.75;;;21.00;74.10;;;;;;4989172;28;20110;-74
2022/09/01 10:54:39;;;;;;;6.43;2.10;;;21.10;76.40;;;;;;4989808;28;20030;-75
2022/09/01 10:57:11;;;;;;;3.95;1.90;;;21.20;75.40;;;;;;4987199;28;20118;-71
2022/09/01 10:59:38;;;;;;;4.63;1.92;;;21.20;75.30;;;;;;4975170;28;20140;-71
2022/09/01 11:02:10;;;;;;;5.70;1.67;;;21.30;75.60;;;;;;4970927;28;20448;-75
2022/09/01 11:04:38;;;;;;;7.18;2.92;;;21.40;75.20;;;;;;4970143;28;20452;-75
2022/09/01 11:07:24;;;;;;;6.93;2.70;;;21.40;73.40;;;;;;4971115;28;20057;-73
2022/09/01 11:10:18;;;;;;;3.78;1.70;;;21.40;74.80;;;;;;4970011;28;20034;-74
2022/09/01 11:13:29;;;;;;;3.85;1.45;;;21.50;73.60;;;;;;4971156;28;20109;-76
2022/09/01 11:15:55;;;;;;;4.93;1.60;;;21.60;73.90;;;;;;4969837;28;20061;-70
2022/09/01 11:18:31;;;;;;;1.30;0.90;;;21.70;73.50;;;;;;4970126;28;20057;-71
2022/09/01 11:21:23;;;;;;;3.45;1.30;;;21.80;72.10;;;;;;4970735;28;20035;-68
2022/09/01 11:23:49;;;;;;;2.60;1.20;;;21.70;72.50;;;;;;4970854;28;20031;-69
2022/09/01 11:26:31;;;;;;;3.28;1.40;;;21.60;72.70;;;;;;4971169;28;20039;-74
2022/09/01 11:28:57;;;;;;;4.25;1.27;;;21.60;73.40;;;;;;4971654;28;20114;-68
2022/09/01 11:31:43;;;;;;;4.90;1.60;;;21.50;73.50;;;;;;4971835;28;20027;-67
2022/09/01 11:34:16;;;;;;;4.03;1.52;;;21.60;73.60;;;;;;4970767;28;20034;-67
2022/09/01 11:36:46;;;;;;;3.22;1.20;;;21.60;73.70;;;;;;4970671;28;20038;-68
2022/09/01 11:39:17;;;;;;;2.72;1.10;;;21.60;74.00;;;;;;4970508;28;20035;-67
2022/09/01 11:42:06;;;;;;;5.00;1.70;;;21.60;73.30;;;;;;4970744;28;20035;-67
2022/09/01 11:44:53;;;;;;;3.97;1.40;;;21.60;73.50;;;;;;4969640;28;20039;-67
2022/09/01 11:47:31;;;;;;;2.80;1.10;;;21.70;73.50;;;;;;4970615;28;20027;-67
2022/09/01 11:50:04;;;;;;;2.78;1.23;;;21.70;73.10;;;;;;4971806;28;20038;-67
2022/09/01 11:52:34;;;;;;;3.05;1.30;;;21.70;73.50;;;;;;4971874;28;20027;-67
2022/09/01 11:55:03;;;;;;;4.80;1.50;;;21.80;73.60;;;;;;4971963;28;20026;-67
2022/09/01 11:57:31;;;;;;;;;;;21.80;72.90;;;;;;4972250;28;20113;-67
2022/09/01 11:59:59;;;;;;;4.85;1.30;;;21.80;73.00;;;;;;4970825;28;19957;-67
2022/09/01 12:02:35;;;;;;;8.85;2.03;;;22.00;72.70;;;;;;4971902;28;20158;-67
2022/09/01 12:05:22;;;;;;;4.28;1.60;;;22.10;72.40;;;;;;4971902;28;20031;-67
2022/09/01 12:07:49;;;;;;;4.18;2.25;;;22.10;72.40;;;;;;4971666;28;20058;-67
2022/09/01 12:10:34;;;;;;;3.38;1.50;;;22.20;72.30;;;;;;4973621;28;20102;-67
2022/09/01 12:13:07;;;;;;;3.35;1.50;;;22.10;72.10;;;;;;4975584;28;20034;-68
2022/09/01 12:15:36;;;;;;;2.85;1.70;;;22.20;72.30;;;;;;4975400;28;20114;-67
2022/09/01 12:18:18;;;;;;;3.78;1.33;;;22.20;72.00;;;;;;4975479;28;20070;-67
2022/09/01 12:20:47;;;;;;;4.70;2.10;;;22.30;71.80;;;;;;4975361;28;20403;-67
2022/09/01 12:23:33;;;;;;;7.50;1.70;;;22.30;72.00;;;;;;4975358;28;20031;-67
2022/09/01 12:26:03;;;;;;;3.88;1.70;;;22.30;72.00;;;;;;4975277;28;20034;-67
2022/09/01 12:28:31;;;;;;;4.20;1.83;;;22.40;71.90;;;;;;4975559;28;20034;-68
2022/09/01 12:31:01;;;;;;;4.03;1.40;;;22.40;72.30;;;;;;4975736;28;20422;-68
2022/09/01 12:33:27;;;;;;;4.43;1.65;;;22.40;71.70;;;;;;4975420;28;20034;-67
2022/09/01 12:36:21;;;;;;;3.90;1.45;;;22.40;71.90;;;;;;4976256;28;20037;-68
2022/09/01 12:38:47;;;;;;;4.00;1.60;;;22.40;72.10;;;;;;4977358;28;20121;-68
2022/09/01 12:41:36;;;;;;;4.38;1.50;;;22.40;72.00;;;;;;4976497;28;20051;-68
2022/09/01 12:44:42;;;;;;;3.03;1.30;;;22.40;71.70;;;;;;4975815;28;20082;-67
2022/09/01 12:47:13;;;;;;;4.05;2.30;;;22.40;72.10;;;;;;4973564;28;20089;-67
2022/09/01 12:49:44;;;;;;;2.95;1.95;;;22.40;72.30;;;;;;4974858;28;20479;-65
2022/09/01 12:52:26;;;;;;;2.70;1.70;;;22.40;72.00;;;;;;4974668;28;20033;-65
2022/09/01 12:55:13;;;;;;;5.22;1.20;;;22.40;72.20;;;;;;4974825;28;20114;-67
2022/09/01 12:57:50;;;;;;;2.83;1.30;;;22.60;71.30;;;;;;4974883;28;20078;-68
2022/09/01 13:00:23;;;;;;;2.83;1.30;;;22.70;71.30;;;;;;4974845;28;20034;-68
2022/09/01 13:03:04;;;;;;;2.97;1.20;;;22.70;71.50;;;;;;4974649;28;20023;-67
2022/09/01 13:05:36;;;;;;;2.97;1.40;;;22.70;71.30;;;;;;4974596;28;20031;-68
2022/09/01 13:08:07;;;;;;;2.20;1.20;;;22.70;71.10;;;;;;4974747;28;20650;-65
2022/09/01 13:10:46;;;;;;;3.55;1.70;;;22.70;70.90;;;;;;4974486;28;20399;-66
2022/09/01 13:13:13;;;;;;;3.85;1.55;;;22.70;70.70;;;;;;4974830;28;20027;-68
2022/09/01 13:15:44;;;;;;;4.10;1.67;;;22.70;70.80;;;;;;4974250;28;20026;-68
2022/09/01 13:18:10;;;;;;;3.53;1.70;;;22.80;70.80;;;;;;4974351;28;20034;-66
2022/09/01 13:20:36;;;;;;;6.20;1.90;;;22.80;71.00;;;;;;4973471;28;20038;-66
2022/09/01 13:23:02;;;;;;;3.28;1.20;;;22.80;71.30;;;;;;4974101;28;20109;-66